Time;durP1;ratioP1;P1;durP2;ratioP2;P2;SDS_P1;SDS_P2;PMS_P1;PMS_P2;Temp;Humidity;BMP_temperature;BMP_pressure;BME280_temperature;BME280_humidity;BME280_pressure;Samples;Min_cycle;Max_cycle;Signal;HPM_P1;HPM_P2
2022/06/14 00:00:54;;;;;;;0.40;0.40;;;;;;;;;;1803801;78;26776;-55
2022/06/14 00:03:23;;;;;;;0.50;0.50;;;;;;;;;;1803682;79;26343;-53
2022/06/14 00:05:50;;;;;;;0.40;0.40;;;;;;;;;;1793736;78;26272;-55
2022/06/14 00:08:18;;;;;;;0.50;0.50;;;;;;;;;;1801427;78;26277;-50
2022/06/14 00:10:46;;;;;;;0.40;0.40;;;;;;;;;;1792122;78;26206;-56
2022/06/14 00:13:14;;;;;;;0.35;0.35;;;;;;;;;;1803699;78;26274;-56
2022/06/14 00:15:41;;;;;;;0.50;0.50;;;;;;;;;;1801927;78;26265;-54
2022/06/14 00:18:09;;;;;;;0.40;0.40;;;;;;;;;;1803128;78;26230;-54
2022/06/14 00:20:36;;;;;;;0.40;0.40;;;;;;;;;;1802396;78;26281;-54
2022/06/14 00:23:04;;;;;;;0.30;0.30;;;;;;;;;;1802092;78;26273;-57
2022/06/14 00:25:36;;;;;;;0.50;0.50;;;;;;;;;;1803593;78;26397;-54
2022/06/14 00:28:05;;;;;;;0.50;0.50;;;;;;;;;;1817025;78;26305;-54
2022/06/14 00:30:32;;;;;;;0.50;0.50;;;;;;;;;;1803338;78;26808;-54
2022/06/14 00:33:00;;;;;;;0.40;0.40;;;;;;;;;;1782210;78;26278;-50
2022/06/14 00:35:28;;;;;;;0.30;0.30;;;;;;;;;;1800516;78;26313;-54
2022/06/14 00:37:55;;;;;;;0.30;0.30;;;;;;;;;;1803758;78;26285;-56
2022/06/14 00:40:24;;;;;;;1.05;0.40;;;;;;;;;;1802768;78;26273;-53
2022/06/14 00:42:52;;;;;;;0.30;0.30;;;;;;;;;;1803919;78;26281;-52
2022/06/14 00:45:20;;;;;;;0.55;0.55;;;;;;;;;;1803585;78;26273;-50
2022/06/14 00:47:49;;;;;;;0.40;0.40;;;;;;;;;;1823398;78;26309;-54
2022/06/14 00:50:18;;;;;;;0.35;0.35;;;;;;;;;;1810908;78;26281;-53
2022/06/14 00:52:50;;;;;;;0.40;0.40;;;;;;;;;;1810631;78;26238;-55
2022/06/14 00:55:18;;;;;;;0.50;0.50;;;;;;;;;;1802637;78;26277;-52
2022/06/14 00:57:50;;;;;;;0.30;0.30;;;;;;;;;;1802961;78;26395;-54
2022/06/14 01:00:19;;;;;;;0.30;0.30;;;;;;;;;;1800663;78;27206;-55
2022/06/14 01:02:54;;;;;;;0.40;0.40;;;;;;;;;;1802999;78;26338;-55
2022/06/14 01:05:23;;;;;;;0.30;0.30;;;;;;;;;;1797862;78;26289;-53
2022/06/14 01:07:51;;;;;;;0.47;0.47;;;;;;;;;;1808888;78;26301;-51
2022/06/14 01:10:20;;;;;;;0.40;0.40;;;;;;;;;;1819167;77;26787;-54
2022/06/14 01:12:49;;;;;;;0.30;0.30;;;;;;;;;;1823280;77;26788;-50
2022/06/14 01:15:20;;;;;;;0.30;0.30;;;;;;;;;;1824231;77;26277;-54
2022/06/14 01:17:49;;;;;;;0.40;0.40;;;;;;;;;;1823678;77;26323;-52
2022/06/14 01:20:18;;;;;;;0.30;0.30;;;;;;;;;;1820619;77;26277;-54
2022/06/14 01:22:46;;;;;;;0.40;0.40;;;;;;;;;;1823853;77;26233;-52
2022/06/14 01:25:13;;;;;;;0.40;0.40;;;;;;;;;;1823704;77;26350;-56
2022/06/14 01:27:41;;;;;;;2.22;0.37;;;;;;;;;;1824251;77;26728;-53
2022/06/14 01:30:13;;;;;;;0.40;0.40;;;;;;;;;;1823167;77;26307;-53
2022/06/14 01:32:42;;;;;;;0.30;0.30;;;;;;;;;;1823219;77;26297;-56
2022/06/14 01:35:11;;;;;;;0.40;0.40;;;;;;;;;;1823944;77;26272;-55
2022/06/14 01:37:38;;;;;;;0.40;0.40;;;;;;;;;;1820548;77;26285;-53
2022/06/14 01:40:06;;;;;;;0.53;0.53;;;;;;;;;;1828850;77;26688;-54
2022/06/14 01:42:41;;;;;;;0.42;0.42;;;;;;;;;;1824146;77;26735;-49
2022/06/14 01:45:28;;;;;;;0.40;0.40;;;;;;;;;;1823597;77;26745;-52
2022/06/14 01:48:00;;;;;;;0.40;0.40;;;;;;;;;;1820834;77;26316;-53
2022/06/14 01:53:35;;;;;;;0.30;0.30;;;;;;;;;;1765301;77;26301;-54
2022/06/14 01:56:04;;;;;;;0.30;0.30;;;;;;;;;;1824405;77;26742;-54
2022/06/14 01:58:33;;;;;;;1.10;0.40;;;;;;;;;;1818360;77;27841;-56
2022/06/14 02:01:04;;;;;;;0.30;0.30;;;;;;;;;;1826423;77;26773;-53
2022/06/14 02:06:26;;;;;;;0.37;0.28;;;;;;;;;;1818674;77;27407;-53
2022/06/14 02:08:54;;;;;;;0.78;0.50;;;;;;;;;;1818366;77;26686;-53
2022/06/14 02:11:29;;;;;;;0.30;0.30;;;;;;;;;;1806114;78;26311;-54
2022/06/14 02:14:14;;;;;;;0.30;0.30;;;;;;;;;;1802543;78;26261;-56
2022/06/14 02:16:46;;;;;;;0.30;0.30;;;;;;;;;;1805393;78;26297;-54
2022/06/14 02:19:15;;;;;;;0.40;0.40;;;;;;;;;;1799692;78;26268;-58
2022/06/14 02:21:43;;;;;;;0.30;0.30;;;;;;;;;;1802386;79;26319;-57
2022/06/14 02:24:18;;;;;;;0.40;0.40;;;;;;;;;;1800417;78;26222;-57
2022/06/14 02:26:52;;;;;;;0.40;0.40;;;;;;;;;;1801765;78;26363;-55
2022/06/14 02:29:24;;;;;;;0.30;0.30;;;;;;;;;;1786010;78;27039;-56
2022/06/14 02:31:56;;;;;;;0.33;0.33;;;;;;;;;;1800860;78;26221;-56
2022/06/14 02:34:24;;;;;;;0.30;0.30;;;;;;;;;;1802646;79;26260;-56
2022/06/14 02:36:53;;;;;;;0.40;0.40;;;;;;;;;;1799160;78;26218;-54
2022/06/14 02:39:22;;;;;;;0.40;0.40;;;;;;;;;;1801514;78;26373;-54
2022/06/14 02:41:51;;;;;;;0.37;0.37;;;;;;;;;;1803669;79;26231;-56
2022/06/14 02:44:20;;;;;;;0.40;0.40;;;;;;;;;;1801346;78;26273;-52
2022/06/14 02:46:48;;;;;;;0.30;0.30;;;;;;;;;;1801732;78;26249;-54
2022/06/14 02:49:17;;;;;;;0.30;0.30;;;;;;;;;;1803706;78;26302;-54
2022/06/14 02:51:49;;;;;;;0.35;0.35;;;;;;;;;;1803992;78;26257;-56
2022/06/14 02:54:18;;;;;;;0.40;0.40;;;;;;;;;;1803591;78;26262;-56
2022/06/14 02:56:56;;;;;;;0.30;0.30;;;;;;;;;;1791740;78;26306;-57
2022/06/14 02:59:30;;;;;;;0.35;0.35;;;;;;;;;;1796701;78;26270;-56
2022/06/14 03:01:59;;;;;;;0.20;0.20;;;;;;;;;;1804661;78;26348;-56
2022/06/14 03:04:28;;;;;;;0.30;0.30;;;;;;;;;;1801913;78;26285;-53
2022/06/14 03:06:58;;;;;;;0.40;0.40;;;;;;;;;;1792935;78;26299;-54
2022/06/14 03:09:30;;;;;;;0.40;0.40;;;;;;;;;;1802365;78;26317;-56
2022/06/14 03:11:57;;;;;;;0.30;0.30;;;;;;;;;;1797950;78;26369;-57
2022/06/14 03:14:32;;;;;;;0.28;0.28;;;;;;;;;;1802520;78;26278;-56
2022/06/14 03:17:01;;;;;;;0.20;0.20;;;;;;;;;;1815579;78;26210;-57
2022/06/14 03:19:35;;;;;;;0.25;0.25;;;;;;;;;;1826919;78;26340;-55
2022/06/14 03:22:10;;;;;;;0.20;0.20;;;;;;;;;;1801671;78;26234;-54
2022/06/14 03:24:41;;;;;;;0.23;0.23;;;;;;;;;;1804024;78;26739;-55
2022/06/14 03:27:10;;;;;;;0.20;0.20;;;;;;;;;;1800334;78;26732;-56
2022/06/14 03:29:56;;;;;;;0.30;0.30;;;;;;;;;;1799936;78;26835;-56
2022/06/14 03:32:24;;;;;;;0.20;0.20;;;;;;;;;;1785904;78;26368;-56
2022/06/14 03:34:56;;;;;;;0.30;0.30;;;;;;;;;;1801584;78;26273;-57
2022/06/14 03:37:23;;;;;;;0.25;0.25;;;;;;;;;;1794243;78;26536;-56
2022/06/14 03:39:52;;;;;;;0.30;0.30;;;;;;;;;;1802710;78;26639;-55
2022/06/14 03:42:20;;;;;;;0.30;0.30;;;;;;;;;;1802350;78;26713;-56
2022/06/14 03:44:47;;;;;;;0.30;0.30;;;;;;;;;;1794431;78;26335;-54
2022/06/14 03:47:16;;;;;;;0.30;0.30;;;;;;;;;;1804947;78;26736;-55
2022/06/14 03:50:00;;;;;;;0.30;0.30;;;;;;;;;;1803619;78;26279;-56
2022/06/14 03:52:29;;;;;;;0.20;0.15;;;;;;;;;;1802871;78;26273;-58
2022/06/14 03:55:01;;;;;;;0.20;0.20;;;;;;;;;;1804180;78;26273;-57
2022/06/14 03:57:39;;;;;;;0.30;0.30;;;;;;;;;;1803604;79;26533;-55
2022/06/14 04:00:20;;;;;;;0.55;0.30;;;;;;;;;;1802822;78;26230;-52
2022/06/14 04:02:57;;;;;;;0.30;0.30;;;;;;;;;;1804607;78;26294;-58
2022/06/14 04:05:38;;;;;;;0.28;0.28;;;;;;;;;;1800264;78;26289;-55
2022/06/14 04:08:22;;;;;;;0.30;0.30;;;;;;;;;;1803860;78;26407;-54
2022/06/14 04:10:51;;;;;;;0.40;0.40;;;;;;;;;;1791283;78;26696;-55
2022/06/14 04:13:36;;;;;;;0.20;0.20;;;;;;;;;;1801145;78;26860;-57
2022/06/14 04:16:05;;;;;;;0.28;0.28;;;;;;;;;;1803931;78;26777;-57
2022/06/14 04:18:39;;;;;;;0.20;0.20;;;;;;;;;;1802461;78;26721;-55
2022/06/14 04:21:08;;;;;;;0.72;0.30;;;;;;;;;;1804520;78;26368;-53
2022/06/14 04:23:37;;;;;;;0.23;0.23;;;;;;;;;;1803422;78;26281;-55
2022/06/14 04:26:18;;;;;;;0.30;0.30;;;;;;;;;;1805457;78;26304;-53
2022/06/14 04:28:49;;;;;;;0.30;0.30;;;;;;;;;;1805108;78;26344;-56
2022/06/14 04:31:33;;;;;;;0.23;0.23;;;;;;;;;;1802951;78;26268;-56
2022/06/14 04:34:05;;;;;;;0.20;0.20;;;;;;;;;;1819090;78;26921;-54
2022/06/14 04:36:40;;;;;;;0.20;0.20;;;;;;;;;;1802154;78;26265;-58
2022/06/14 04:39:11;;;;;;;1.52;0.35;;;;;;;;;;1804068;78;26874;-54
2022/06/14 04:41:40;;;;;;;0.30;0.30;;;;;;;;;;1799217;78;26304;-59
2022/06/14 04:44:09;;;;;;;3.00;0.25;;;;;;;;;;1812846;78;26270;-57
2022/06/14 04:46:44;;;;;;;1.47;0.30;;;;;;;;;;1812090;78;26339;-53
2022/06/14 04:52:12;;;;;;;;;;;;;;;;;;;;;
2022/06/14 04:54:35;;;;;;;0.20;0.20;;;;;;;;;;1725027;79;26442;-57
2022/06/14 04:57:04;;;;;;;0.33;0.33;;;;;;;;;;1803640;78;26348;-55
2022/06/14 04:59:33;;;;;;;0.50;0.40;;;;;;;;;;1813396;78;26761;-53
2022/06/14 05:02:02;;;;;;;0.40;0.40;;;;;;;;;;1807996;78;26331;-56
2022/06/14 05:04:32;;;;;;;0.90;0.35;;;;;;;;;;1805000;79;26281;-58
2022/06/14 05:07:10;;;;;;;0.37;0.37;;;;;;;;;;1803042;78;26824;-58
2022/06/14 05:09:45;;;;;;;0.70;0.30;;;;;;;;;;1811385;78;26364;-55
2022/06/14 05:12:14;;;;;;;0.42;0.40;;;;;;;;;;1803386;77;26278;-55
2022/06/14 05:14:45;;;;;;;1.10;0.30;;;;;;;;;;1808766;78;26288;-55
2022/06/14 05:17:31;;;;;;;1.95;0.40;;;;;;;;;;1808737;78;26285;-58
2022/06/14 05:20:00;;;;;;;0.30;0.30;;;;;;;;;;1801220;78;26317;-54
2022/06/14 05:22:41;;;;;;;0.70;0.47;;;;;;;;;;1805750;78;26743;-54
2022/06/14 05:25:10;;;;;;;0.33;0.33;;;;;;;;;;1804064;78;26370;-56
2022/06/14 05:27:41;;;;;;;1.37;0.40;;;;;;;;;;1804907;79;26264;-55
2022/06/14 05:30:13;;;;;;;1.90;0.35;;;;;;;;;;1805089;78;26637;-56
2022/06/14 05:32:48;;;;;;;0.35;0.35;;;;;;;;;;1803511;78;26237;-56
2022/06/14 05:35:26;;;;;;;0.30;0.30;;;;;;;;;;1806723;78;26741;-56
2022/06/14 05:38:11;;;;;;;0.37;0.37;;;;;;;;;;1800436;79;26669;-57
2022/06/14 05:40:43;;;;;;;0.33;0.33;;;;;;;;;;1805720;78;26333;-55
2022/06/14 05:43:10;;;;;;;0.30;0.30;;;;;;;;;;1815952;78;26332;-58
2022/06/14 05:45:39;;;;;;;0.40;0.40;;;;;;;;;;1805560;78;26297;-57
2022/06/14 05:48:08;;;;;;;0.30;0.30;;;;;;;;;;1803002;79;26237;-55
2022/06/14 05:50:37;;;;;;;0.62;0.40;;;;;;;;;;1805072;79;26352;-58
2022/06/14 05:53:06;;;;;;;0.62;0.40;;;;;;;;;;1813876;78;26241;-56
2022/06/14 05:55:37;;;;;;;0.20;0.20;;;;;;;;;;1805398;78;26285;-58
2022/06/14 05:58:12;;;;;;;0.60;0.40;;;;;;;;;;1806106;78;26326;-57
2022/06/14 06:00:44;;;;;;;0.42;0.40;;;;;;;;;;1806272;78;26732;-55
2022/06/14 06:03:28;;;;;;;1.37;0.40;;;;;;;;;;1797772;78;26798;-57
2022/06/14 06:06:00;;;;;;;0.23;0.23;;;;;;;;;;1766200;79;26838;-58
2022/06/14 06:08:45;;;;;;;0.40;0.40;;;;;;;;;;1796562;79;26334;-57
2022/06/14 06:11:16;;;;;;;0.30;0.30;;;;;;;;;;1820310;77;26437;-58
2022/06/14 06:13:50;;;;;;;0.20;0.20;;;;;;;;;;1803865;78;26295;-58
2022/06/14 06:16:22;;;;;;;0.40;0.40;;;;;;;;;;1803181;78;27332;-56
2022/06/14 06:19:00;;;;;;;0.37;0.37;;;;;;;;;;1804192;78;26391;-56
2022/06/14 06:21:40;;;;;;;0.30;0.30;;;;;;;;;;1800780;78;26514;-56
2022/06/14 06:24:09;;;;;;;0.30;0.30;;;;;;;;;;1803729;78;26273;-54
2022/06/14 06:26:38;;;;;;;0.30;0.30;;;;;;;;;;1803070;78;26301;-55
2022/06/14 06:29:19;;;;;;;0.80;0.40;;;;;;;;;;1786721;79;26359;-57
2022/06/14 06:31:46;;;;;;;0.30;0.30;;;;;;;;;;1801934;78;26297;-55
2022/06/14 06:34:15;;;;;;;0.42;0.42;;;;;;;;;;1815358;78;26749;-54
2022/06/14 06:36:55;;;;;;;0.30;0.30;;;;;;;;;;1812966;78;26734;-55
2022/06/14 06:39:37;;;;;;;0.37;0.37;;;;;;;;;;1802888;78;26309;-53
2022/06/14 06:42:08;;;;;;;0.30;0.30;;;;;;;;;;1792128;78;26377;-54
2022/06/14 06:44:39;;;;;;;0.30;0.30;;;;;;;;;;1803201;78;26629;-54
2022/06/14 06:47:11;;;;;;;0.40;0.40;;;;;;;;;;1803573;78;26359;-54
2022/06/14 06:49:40;;;;;;;0.33;0.33;;;;;;;;;;1813143;78;26733;-55
2022/06/14 06:52:09;;;;;;;0.30;0.30;;;;;;;;;;1799296;78;26320;-56
2022/06/14 06:54:41;;;;;;;0.30;0.30;;;;;;;;;;1810264;78;26305;-53
2022/06/14 06:57:10;;;;;;;0.30;0.30;;;;;;;;;;1802734;79;26285;-55
2022/06/14 06:59:38;;;;;;;0.30;0.30;;;;;;;;;;1808364;78;26245;-53
2022/06/14 07:02:11;;;;;;;0.40;0.40;;;;;;;;;;1818146;78;26313;-56
2022/06/14 07:07:24;;;;;;;0.30;0.30;;;;;;;;;;1793308;78;26308;-57
2022/06/14 07:09:53;;;;;;;0.30;0.30;;;;;;;;;;1805023;78;26387;-56
2022/06/14 07:12:25;;;;;;;0.30;0.30;;;;;;;;;;1784905;78;26422;-57
2022/06/14 07:15:03;;;;;;;0.50;0.50;;;;;;;;;;1802768;78;26313;-54
2022/06/14 07:17:33;;;;;;;0.45;0.30;;;;;;;;;;1812839;78;26378;-57
2022/06/14 07:20:02;;;;;;;0.30;0.30;;;;;;;;;;1797689;78;26412;-56
2022/06/14 07:22:34;;;;;;;0.30;0.30;;;;;;;;;;1807229;78;26292;-56
2022/06/14 07:25:12;;;;;;;0.30;0.30;;;;;;;;;;1801073;78;26297;-55
2022/06/14 07:27:46;;;;;;;0.25;0.25;;;;;;;;;;1801316;78;26309;-57
2022/06/14 07:30:16;;;;;;;0.30;0.30;;;;;;;;;;1797169;78;26439;-57
2022/06/14 07:32:46;;;;;;;0.30;0.30;;;;;;;;;;1807145;78;26433;-54
2022/06/14 07:35:18;;;;;;;0.30;0.30;;;;;;;;;;1806173;78;26349;-54
2022/06/14 07:37:46;;;;;;;0.30;0.30;;;;;;;;;;1809867;78;26270;-59
2022/06/14 07:40:18;;;;;;;0.40;0.40;;;;;;;;;;1802418;78;26225;-56
2022/06/14 07:42:50;;;;;;;0.30;0.30;;;;;;;;;;1800132;78;26429;-55
2022/06/14 07:45:24;;;;;;;0.30;0.30;;;;;;;;;;1811810;78;26780;-56
2022/06/14 07:48:00;;;;;;;0.40;0.40;;;;;;;;;;1806683;78;26678;-54
2022/06/14 07:50:28;;;;;;;0.50;0.50;;;;;;;;;;1816764;78;26849;-57
2022/06/14 07:52:57;;;;;;;0.30;0.30;;;;;;;;;;1802058;78;26658;-57
2022/06/14 07:55:26;;;;;;;0.37;0.37;;;;;;;;;;1809886;78;26801;-54
2022/06/14 07:57:55;;;;;;;0.40;0.40;;;;;;;;;;1802774;78;26337;-53
2022/06/14 08:03:11;;;;;;;0.30;0.30;;;;;;;;;;1806174;78;26706;-58
2022/06/14 08:05:39;;;;;;;0.30;0.30;;;;;;;;;;1784001;78;26803;-56
2022/06/14 08:08:08;;;;;;;0.30;0.30;;;;;;;;;;1792237;78;26662;-56
2022/06/14 08:10:42;;;;;;;0.30;0.30;;;;;;;;;;1803697;78;26740;-53
2022/06/14 08:13:10;;;;;;;0.30;0.30;;;;;;;;;;1801830;78;26866;-53
2022/06/14 08:15:45;;;;;;;0.23;0.23;;;;;;;;;;1803698;78;26300;-55
2022/06/14 08:18:16;;;;;;;0.40;0.40;;;;;;;;;;1818005;78;26314;-57
2022/06/14 08:20:54;;;;;;;0.30;0.30;;;;;;;;;;1800497;78;26756;-54
2022/06/14 08:23:20;;;;;;;0.20;0.20;;;;;;;;;;1800883;78;26822;-53
2022/06/14 08:25:49;;;;;;;0.40;0.40;;;;;;;;;;1801320;78;26732;-55
2022/06/14 08:28:21;;;;;;;0.30;0.30;;;;;;;;;;1816232;78;26627;-56
2022/06/14 08:30:59;;;;;;;0.35;0.35;;;;;;;;;;1814614;78;26238;-56
2022/06/14 08:33:28;;;;;;;0.40;0.40;;;;;;;;;;1810120;78;26315;-56
2022/06/14 08:36:20;;;;;;;0.33;0.33;;;;;;;;;;1801828;78;26233;-56
2022/06/14 08:38:45;;;;;;;0.37;0.37;;;;;;;;;;1807694;78;26345;-55
2022/06/14 08:41:19;;;;;;;0.40;0.40;;;;;;;;;;1799734;78;26780;-57
2022/06/14 08:43:51;;;;;;;0.20;0.20;;;;;;;;;;1802317;78;26234;-56
2022/06/14 08:46:27;;;;;;;0.35;0.35;;;;;;;;;;1795342;78;26305;-55
2022/06/14 08:49:02;;;;;;;0.30;0.30;;;;;;;;;;1803077;78;26356;-54
2022/06/14 08:51:34;;;;;;;0.40;0.40;;;;;;;;;;1807193;78;26289;-58
2022/06/14 08:54:21;;;;;;;0.30;0.30;;;;;;;;;;1825580;78;26891;-55
2022/06/14 08:56:57;;;;;;;0.40;0.40;;;;;;;;;;1797600;78;26285;-50
2022/06/14 08:59:27;;;;;;;0.30;0.30;;;;;;;;;;1800862;78;26749;-57
2022/06/14 09:02:03;;;;;;;0.30;0.30;;;;;;;;;;1788979;78;26785;-55
2022/06/14 09:04:50;;;;;;;0.35;0.35;;;;;;;;;;1793600;78;26310;-56
2022/06/14 09:07:30;;;;;;;;;;;;;;;;;;;;;
2022/06/14 09:10:10;;;;;;;0.20;0.20;;;;;;;;;;1800267;78;26350;-55
2022/06/14 09:12:57;;;;;;;0.40;0.40;;;;;;;;;;1710309;82;26878;-55
2022/06/14 09:15:43;;;;;;;0.30;0.30;;;;;;;;;;1710186;82;28191;-51
2022/06/14 09:18:28;;;;;;;0.30;0.30;;;;;;;;;;1691981;84;26358;-54
2022/06/14 10:16:24;;;;;;;0.40;0.40;;;;;;;;;;1888480;74;29333;-55
2022/06/14 10:19:10;;;;;;;0.42;0.42;;;;;;;;;;1872747;76;26258;-56
2022/06/14 10:21:38;;;;;;;0.40;0.40;;;;;;;;;;1874135;76;26315;-52
2022/06/14 10:24:24;;;;;;;0.42;0.42;;;;;;;;;;1835601;77;26287;-55
2022/06/14 10:29:55;;;;;;;0.40;0.40;;;;;;;;;;1852763;77;26716;-55
2022/06/14 10:32:24;;;;;;;0.33;0.30;;;;;;;;;;1803821;78;26321;-56
2022/06/14 10:34:58;;;;;;;0.30;0.30;;;;;;;;;;1855000;77;26257;-55
2022/06/14 10:37:27;;;;;;;0.30;0.30;;;;;;;;;;1855582;76;26807;-58
2022/06/14 10:39:59;;;;;;;0.30;0.30;;;;;;;;;;1855398;76;26315;-56
2022/06/14 10:42:28;;;;;;;0.30;0.30;;;;;;;;;;1825511;77;26245;-54
2022/06/14 10:44:56;;;;;;;0.40;0.40;;;;;;;;;;1855144;77;26245;-57
2022/06/14 10:47:43;;;;;;;0.30;0.30;;;;;;;;;;1828069;77;26385;-56
2022/06/14 10:50:21;;;;;;;0.35;0.35;;;;;;;;;;1835082;77;26276;-54
2022/06/14 10:52:56;;;;;;;0.50;0.50;;;;;;;;;;1814816;77;26216;-59
2022/06/14 10:55:41;;;;;;;0.35;0.35;;;;;;;;;;1844167;77;26265;-55
2022/06/14 10:58:10;;;;;;;0.30;0.30;;;;;;;;;;1842660;76;26271;-56
2022/06/14 11:00:56;;;;;;;0.35;0.35;;;;;;;;;;1848048;77;26307;-58
2022/06/14 11:03:41;;;;;;;0.37;0.37;;;;;;;;;;1825065;77;26276;-57
2022/06/14 11:06:22;;;;;;;0.50;0.50;;;;;;;;;;1827848;77;26264;-52
2022/06/14 11:08:57;;;;;;;0.40;0.40;;;;;;;;;;1821896;78;26580;-57
2022/06/14 11:11:28;;;;;;;0.40;0.40;;;;;;;;;;1820223;78;26739;-54
2022/06/14 11:14:00;;;;;;;0.40;0.40;;;;;;;;;;1825972;78;26288;-57
2022/06/14 11:16:32;;;;;;;0.40;0.40;;;;;;;;;;1865388;77;26349;-56
2022/06/14 11:19:01;;;;;;;0.50;0.50;;;;;;;;;;1865450;77;26270;-57
2022/06/14 11:21:36;;;;;;;0.40;0.40;;;;;;;;;;1848553;77;26302;-54
2022/06/14 11:24:05;;;;;;;0.40;0.40;;;;;;;;;;1855621;77;26348;-55
2022/06/14 11:26:42;;;;;;;0.65;0.33;;;;;;;;;;1861577;77;26235;-55
2022/06/14 11:29:11;;;;;;;0.50;0.50;;;;;;;;;;1864824;77;26760;-55
2022/06/14 11:31:52;;;;;;;0.30;0.30;;;;;;;;;;1862380;77;26532;-56
2022/06/14 11:34:27;;;;;;;0.40;0.40;;;;;;;;;;1845737;77;27561;-57
2022/06/14 11:36:56;;;;;;;0.40;0.40;;;;;;;;;;1837755;77;26366;-54
2022/06/14 11:39:25;;;;;;;0.40;0.40;;;;;;;;;;1864719;75;26290;-56
2022/06/14 11:41:52;;;;;;;0.30;0.30;;;;;;;;;;1868682;77;26274;-56
2022/06/14 11:44:27;;;;;;;0.33;0.33;;;;;;;;;;1846156;77;26830;-56
2022/06/14 11:46:56;;;;;;;0.60;0.60;;;;;;;;;;1849199;77;26316;-56
2022/06/14 11:49:24;;;;;;;0.30;0.30;;;;;;;;;;1868199;77;26208;-56
2022/06/14 11:51:59;;;;;;;0.40;0.40;;;;;;;;;;1847828;77;26654;-53
2022/06/14 11:54:28;;;;;;;0.42;0.42;;;;;;;;;;1869719;77;26341;-57
2022/06/14 11:56:57;;;;;;;0.35;0.35;;;;;;;;;;1870631;75;26262;-57
2022/06/14 11:59:25;;;;;;;0.40;0.40;;;;;;;;;;1869206;77;26278;-58
2022/06/14 12:01:57;;;;;;;0.30;0.30;;;;;;;;;;1873604;75;26240;-58
2022/06/14 12:04:29;;;;;;;0.30;0.30;;;;;;;;;;1878095;75;26768;-55
2022/06/14 12:07:10;;;;;;;0.40;0.40;;;;;;;;;;1866924;75;26581;-55
2022/06/14 12:09:38;;;;;;;0.30;0.30;;;;;;;;;;1840829;76;26744;-57
2022/06/14 12:12:15;;;;;;;0.37;0.37;;;;;;;;;;1857897;77;26232;-56
2022/06/14 12:15:00;;;;;;;0.53;0.53;;;;;;;;;;1852740;77;26346;-58
2022/06/14 12:17:29;;;;;;;0.30;0.30;;;;;;;;;;1811867;78;26364;-58
2022/06/14 12:20:01;;;;;;;0.40;0.40;;;;;;;;;;1833474;77;26260;-55
2022/06/14 12:22:31;;;;;;;0.37;0.37;;;;;;;;;;1824359;77;26253;-54
2022/06/14 12:27:49;;;;;;;0.30;0.30;;;;;;;;;;1834503;77;26800;-57
2022/06/14 12:30:18;;;;;;;0.33;0.33;;;;;;;;;;1829607;77;26366;-55
2022/06/14 12:32:50;;;;;;;0.35;0.35;;;;;;;;;;1807340;78;26258;-57
2022/06/14 12:35:18;;;;;;;0.23;0.23;;;;;;;;;;1824093;78;26271;-56
2022/06/14 12:37:53;;;;;;;0.35;0.35;;;;;;;;;;1809229;78;26358;-53
2022/06/14 12:40:39;;;;;;;0.30;0.30;;;;;;;;;;1821780;78;26342;-52
2022/06/14 12:43:08;;;;;;;0.37;0.37;;;;;;;;;;1806310;78;26251;-56
2022/06/14 12:45:39;;;;;;;0.40;0.40;;;;;;;;;;1809987;78;26329;-57
2022/06/14 12:48:17;;;;;;;0.40;0.40;;;;;;;;;;1823119;77;26655;-57
2022/06/14 12:50:46;;;;;;;0.30;0.30;;;;;;;;;;1825542;77;26353;-57
2022/06/14 12:53:15;;;;;;;0.30;0.30;;;;;;;;;;1809721;78;26255;-56
2022/06/14 12:55:44;;;;;;;0.40;0.40;;;;;;;;;;1832825;77;26287;-57
2022/06/14 12:58:19;;;;;;;0.30;0.30;;;;;;;;;;1815938;78;26643;-55
2022/06/14 13:00:48;;;;;;;0.30;0.30;;;;;;;;;;1812102;78;26691;-56
2022/06/14 13:03:17;;;;;;;0.23;0.23;;;;;;;;;;1827048;78;26686;-54
2022/06/14 13:05:46;;;;;;;0.30;0.30;;;;;;;;;;1810548;78;26249;-56
2022/06/14 13:08:14;;;;;;;0.25;0.25;;;;;;;;;;1815503;78;26751;-55
2022/06/14 13:10:53;;;;;;;0.35;0.35;;;;;;;;;;1804948;78;26727;-52
2022/06/14 13:13:34;;;;;;;0.30;0.30;;;;;;;;;;1833667;77;26247;-55
2022/06/14 13:16:15;;;;;;;0.40;0.40;;;;;;;;;;1833654;77;26309;-56
2022/06/14 13:18:49;;;;;;;0.40;0.40;;;;;;;;;;1868992;76;26722;-57
2022/06/14 13:21:27;;;;;;;0.23;0.23;;;;;;;;;;1869242;76;26266;-57
2022/06/14 13:24:05;;;;;;;0.30;0.30;;;;;;;;;;1845465;77;26742;-54
2022/06/14 13:26:52;;;;;;;0.30;0.30;;;;;;;;;;1864085;76;26266;-57
2022/06/14 13:29:30;;;;;;;0.40;0.40;;;;;;;;;;1854117;77;26888;-55
2022/06/14 13:32:02;;;;;;;0.30;0.30;;;;;;;;;;1869164;76;26616;-54
2022/06/14 13:34:37;;;;;;;0.33;0.33;;;;;;;;;;1875718;76;26298;-54
2022/06/14 13:37:22;;;;;;;0.30;0.30;;;;;;;;;;1873866;76;26199;-52
2022/06/14 13:39:51;;;;;;;0.37;0.37;;;;;;;;;;1873599;76;26746;-56
2022/06/14 13:42:23;;;;;;;0.40;0.40;;;;;;;;;;1872143;76;26260;-58
2022/06/14 13:44:54;;;;;;;0.30;0.30;;;;;;;;;;1865922;75;26271;-58
2022/06/14 13:47:26;;;;;;;0.30;0.30;;;;;;;;;;1874242;75;26250;-58
2022/06/14 13:49:54;;;;;;;0.30;0.30;;;;;;;;;;1868820;77;26704;-53
2022/06/14 13:52:26;;;;;;;0.30;0.30;;;;;;;;;;1877874;75;26795;-57
2022/06/14 13:54:58;;;;;;;0.30;0.30;;;;;;;;;;1873014;75;26340;-56
2022/06/14 13:57:28;;;;;;;0.30;0.30;;;;;;;;;;1835487;77;26277;-57
2022/06/14 13:59:56;;;;;;;0.35;0.35;;;;;;;;;;1849316;77;26767;-55
2022/06/14 14:02:42;;;;;;;0.30;0.30;;;;;;;;;;1857410;76;26697;-54
2022/06/14 14:05:11;;;;;;;0.20;0.20;;;;;;;;;;1857783;77;26307;-56
2022/06/14 14:07:39;;;;;;;0.30;0.30;;;;;;;;;;1847905;77;26322;-57
2022/06/14 14:10:20;;;;;;;0.30;0.30;;;;;;;;;;1843006;77;26222;-57
2022/06/14 14:13:02;;;;;;;0.40;0.40;;;;;;;;;;1848426;76;27119;-55
2022/06/14 14:15:31;;;;;;;0.30;0.30;;;;;;;;;;1826072;77;26392;-58
2022/06/14 14:18:08;;;;;;;0.28;0.28;;;;;;;;;;1843131;77;26256;-58
2022/06/14 14:20:39;;;;;;;0.33;0.33;;;;;;;;;;1847037;77;26672;-58
2022/06/14 14:23:20;;;;;;;0.30;0.30;;;;;;;;;;1839109;77;26205;-58
2022/06/14 14:26:01;;;;;;;0.30;0.30;;;;;;;;;;1818737;77;26718;-58
2022/06/14 14:28:36;;;;;;;0.35;0.35;;;;;;;;;;1843692;77;26260;-58
2022/06/14 14:31:11;;;;;;;0.35;0.35;;;;;;;;;;1847887;76;26316;-58
2022/06/14 14:33:56;;;;;;;0.35;0.35;;;;;;;;;;1824807;77;26364;-59
2022/06/14 14:36:28;;;;;;;0.30;0.30;;;;;;;;;;1849163;77;26362;-57
2022/06/14 14:38:57;;;;;;;0.30;0.30;;;;;;;;;;1837521;77;26291;-58
2022/06/14 14:41:37;;;;;;;0.30;0.30;;;;;;;;;;1847256;77;26619;-58
2022/06/14 14:44:05;;;;;;;0.30;0.30;;;;;;;;;;1818690;77;26800;-58
2022/06/14 14:46:34;;;;;;;0.25;0.25;;;;;;;;;;1830710;77;26659;-52
2022/06/14 14:49:09;;;;;;;0.42;0.42;;;;;;;;;;1837570;76;26705;-57
2022/06/14 14:51:46;;;;;;;0.40;0.40;;;;;;;;;;1839489;77;26287;-56
2022/06/14 14:54:15;;;;;;;0.37;0.37;;;;;;;;;;1848278;77;26290;-55
2022/06/14 14:56:44;;;;;;;0.35;0.35;;;;;;;;;;1825567;77;26305;-55
2022/06/14 14:59:16;;;;;;;0.30;0.30;;;;;;;;;;1845590;77;26315;-57
2022/06/14 15:07:25;;;;;;;0.40;0.40;;;;;;;;;;1844471;76;26340;-56
2022/06/14 15:09:59;;;;;;;0.28;0.28;;;;;;;;;;1799878;77;26208;-56
2022/06/14 15:12:28;;;;;;;0.40;0.40;;;;;;;;;;1847930;77;26257;-57
2022/06/14 15:15:14;;;;;;;0.90;0.25;;;;;;;;;;1849346;77;26743;-53
2022/06/14 15:20:30;;;;;;;0.40;0.40;;;;;;;;;;1828112;77;26314;-54
2022/06/14 15:22:59;;;;;;;0.40;0.40;;;;;;;;;;1850819;77;26209;-55
2022/06/14 15:25:27;;;;;;;0.40;0.40;;;;;;;;;;1843400;77;26320;-56
2022/06/14 15:28:08;;;;;;;0.30;0.30;;;;;;;;;;1851493;76;26271;-54
2022/06/14 15:30:37;;;;;;;0.30;0.30;;;;;;;;;;1847217;77;26207;-54
2022/06/14 15:33:22;;;;;;;0.40;0.40;;;;;;;;;;1844860;77;26298;-56
2022/06/14 15:35:53;;;;;;;0.30;0.30;;;;;;;;;;1847154;77;26861;-54
2022/06/14 15:38:28;;;;;;;0.40;0.40;;;;;;;;;;1852464;77;26283;-55
2022/06/14 15:41:08;;;;;;;0.30;0.30;;;;;;;;;;1848499;77;26262;-55
2022/06/14 15:43:37;;;;;;;0.30;0.30;;;;;;;;;;1846991;77;26733;-56
2022/06/14 15:46:05;;;;;;;0.42;0.42;;;;;;;;;;1848160;77;26342;-56
2022/06/14 15:48:34;;;;;;;0.45;0.45;;;;;;;;;;1847195;76;26263;-57
2022/06/14 15:51:06;;;;;;;0.40;0.40;;;;;;;;;;1843812;77;26350;-58
2022/06/14 15:53:35;;;;;;;0.40;0.40;;;;;;;;;;1835956;77;28002;-57
2022/06/14 15:56:04;;;;;;;0.40;0.40;;;;;;;;;;1846406;77;26398;-54
2022/06/14 15:58:33;;;;;;;0.45;0.45;;;;;;;;;;1846310;77;26277;-54
2022/06/14 16:01:02;;;;;;;0.40;0.40;;;;;;;;;;1845301;77;26290;-55
2022/06/14 16:03:31;;;;;;;0.40;0.40;;;;;;;;;;1848527;77;26251;-55
2022/06/14 16:06:01;;;;;;;0.37;0.37;;;;;;;;;;1841517;76;26260;-58
2022/06/14 16:08:30;;;;;;;0.40;0.40;;;;;;;;;;1846853;76;26384;-53
2022/06/14 16:10:59;;;;;;;0.55;0.40;;;;;;;;;;1853878;77;26341;-57
2022/06/14 16:13:28;;;;;;;0.30;0.30;;;;;;;;;;1830148;77;26314;-53
2022/06/14 16:15:56;;;;;;;0.30;0.30;;;;;;;;;;1840148;77;26676;-54
2022/06/14 16:18:31;;;;;;;0.40;0.40;;;;;;;;;;1822677;78;26313;-56
2022/06/14 16:21:06;;;;;;;0.30;0.30;;;;;;;;;;1833059;78;26201;-56
2022/06/14 16:23:34;;;;;;;0.35;0.35;;;;;;;;;;1830563;77;26271;-57
2022/06/14 16:26:07;;;;;;;0.30;0.30;;;;;;;;;;1834607;78;26288;-57
2022/06/14 16:28:36;;;;;;;0.50;0.50;;;;;;;;;;1826817;78;26286;-55
2022/06/14 16:31:05;;;;;;;0.30;0.30;;;;;;;;;;1820456;78;26283;-55
2022/06/14 16:33:34;;;;;;;0.50;0.50;;;;;;;;;;1833360;77;27292;-54
2022/06/14 16:36:03;;;;;;;0.40;0.40;;;;;;;;;;1831436;78;26727;-56
2022/06/14 16:38:50;;;;;;;0.40;0.40;;;;;;;;;;1807559;78;26352;-55
2022/06/14 16:41:18;;;;;;;0.30;0.30;;;;;;;;;;1817897;77;26298;-56